createdAt,value
2022-09-11T00:01:15.176Z,100.00
2022-09-11T00:03:43.229Z,100.00
2022-09-11T00:06:14.611Z,100.00
2022-09-11T00:08:43.006Z,100.00
2022-09-11T00:11:11.031Z,100.00
2022-09-11T00:13:40.138Z,100.00
2022-09-11T00:16:18.868Z,100.00
2022-09-11T00:18:46.773Z,100.00
2022-09-11T00:21:13.455Z,100.00
2022-09-11T00:23:40.198Z,100.00
2022-09-11T00:26:06.916Z,100.00
2022-09-11T00:28:34.419Z,100.00
2022-09-11T00:31:05.209Z,100.00
2022-09-11T00:33:33.384Z,100.00
2022-09-11T00:36:03.812Z,100.00
2022-09-11T00:38:33.017Z,100.00
2022-09-11T00:41:01.944Z,100.00
2022-09-11T00:44:04.653Z,100.00
2022-09-11T00:46:41.918Z,100.00
2022-09-11T00:49:15.868Z,100.00
2022-09-11T00:51:47.833Z,100.00
2022-09-11T00:54:18.166Z,100.00
2022-09-11T00:56:45.002Z,100.00
2022-09-11T00:59:25.106Z,100.00
2022-09-11T01:01:51.761Z,100.00
2022-09-11T01:04:41.780Z,100.00
2022-09-11T01:07:10.193Z,100.00
2022-09-11T01:09:37.095Z,100.00
2022-09-11T01:12:19.523Z,100.00
2022-09-11T01:15:28.243Z,100.00
2022-09-11T01:18:22.321Z,100.00
2022-09-11T01:21:02.092Z,100.00
2022-09-11T01:23:31.487Z,100.00
2022-09-11T01:26:22.741Z,100.00
2022-09-11T01:28:57.628Z,100.00
2022-09-11T01:31:30.550Z,100.00
2022-09-11T01:34:03.245Z,100.00
2022-09-11T01:36:34.857Z,100.00
2022-09-11T01:39:04.072Z,100.00
2022-09-11T01:41:32.689Z,100.00
2022-09-11T01:44:34.561Z,100.00
2022-09-11T01:47:05.145Z,100.00
2022-09-11T01:49:51.122Z,100.00
2022-09-11T01:52:24.326Z,100.00
2022-09-11T01:54:56.722Z,100.00
2022-09-11T01:57:35.775Z,100.00
2022-09-11T02:00:08.191Z,100.00
2022-09-11T02:02:46.952Z,100.00
2022-09-11T02:05:18.475Z,100.00
2022-09-11T02:07:55.766Z,100.00
2022-09-11T02:10:31.155Z,100.00
2022-09-11T02:13:03.064Z,100.00
2022-09-11T02:15:39.739Z,100.00
2022-09-11T02:18:16.909Z,100.00
2022-09-11T02:20:45.219Z,100.00
2022-09-11T02:23:11.829Z,100.00
2022-09-11T02:25:39.652Z,100.00
2022-09-11T02:28:06.282Z,100.00
2022-09-11T02:30:33.130Z,100.00
2022-09-11T02:32:59.888Z,100.00
2022-09-11T02:35:37.252Z,100.00
2022-09-11T02:38:25.232Z,100.00
2022-09-11T02:41:00.354Z,100.00
2022-09-11T02:43:42.574Z,100.00
2022-09-11T02:46:26.146Z,100.00
2022-09-11T02:49:09.033Z,100.00
2022-09-11T02:51:38.681Z,100.00
2022-09-11T02:54:23.332Z,100.00
2022-09-11T02:57:06.068Z,100.00
2022-09-11T02:59:38.973Z,100.00
2022-09-11T03:02:10.230Z,100.00
2022-09-11T03:04:37.208Z,100.00
2022-09-11T03:07:04.388Z,100.00
2022-09-11T03:09:31.276Z,100.00
2022-09-11T03:12:04.429Z,100.00
2022-09-11T03:14:35.837Z,100.00
2022-09-11T03:17:04.833Z,100.00
2022-09-11T03:19:31.949Z,100.00
2022-09-11T03:21:58.727Z,100.00
2022-09-11T03:24:26.343Z,100.00
2022-09-11T03:26:53.059Z,100.00
2022-09-11T03:29:19.717Z,100.00
2022-09-11T03:31:47.292Z,100.00
2022-09-11T03:34:14.510Z,100.00
2022-09-11T03:36:41.232Z,100.00
2022-09-11T03:39:07.875Z,100.00
2022-09-11T03:41:35.805Z,100.00
2022-09-11T03:44:04.879Z,100.00
2022-09-11T03:46:32.959Z,100.00
2022-09-11T03:48:59.782Z,100.00
2022-09-11T03:51:26.928Z,100.00
2022-09-11T03:53:54.055Z,100.00
2022-09-11T03:56:21.151Z,100.00
2022-09-11T03:58:48.922Z,100.00
2022-09-11T04:01:18.944Z,100.00
2022-09-11T04:03:46.098Z,100.00
2022-09-11T04:06:20.815Z,100.00
2022-09-11T04:08:47.527Z,100.00
2022-09-11T04:11:14.247Z,100.00
2022-09-11T04:13:42.126Z,100.00
2022-09-11T04:16:17.560Z,100.00
2022-09-11T04:18:47.501Z,100.00
2022-09-11T04:21:16.603Z,100.00
2022-09-11T04:23:45.625Z,100.00
2022-09-11T04:26:18.038Z,100.00
2022-09-11T04:28:47.578Z,100.00
2022-09-11T04:31:16.566Z,100.00
2022-09-11T04:33:44.221Z,100.00
2022-09-11T04:36:13.995Z,100.00
2022-09-11T04:38:41.896Z,100.00
2022-09-11T04:41:11.664Z,100.00
2022-09-11T04:43:40.233Z,100.00
2022-09-11T04:46:13.371Z,100.00
2022-09-11T04:48:52.912Z,100.00
2022-09-11T04:51:28.950Z,100.00
2022-09-11T04:53:57.800Z,100.00
2022-09-11T04:56:37.961Z,100.00
2022-09-11T04:59:26.875Z,100.00
2022-09-11T05:02:23.329Z,100.00
2022-09-11T05:04:54.728Z,100.00
2022-09-11T05:07:21.432Z,100.00
2022-09-11T05:09:50.672Z,100.00
2022-09-11T05:12:18.291Z,100.00
2022-09-11T05:14:46.134Z,100.00
2022-09-11T05:17:13.527Z,100.00
2022-09-11T05:19:42.055Z,100.00
2022-09-11T05:22:09.139Z,100.00
2022-09-11T05:24:39.380Z,100.00
2022-09-11T05:27:06.855Z,100.00
2022-09-11T05:29:39.107Z,100.00
2022-09-11T05:32:10.985Z,100.00
2022-09-11T05:34:37.574Z,100.00
2022-09-11T05:37:05.374Z,100.00
2022-09-11T05:39:37.773Z,100.00
2022-09-11T05:42:05.813Z,100.00
2022-09-11T05:44:37.194Z,100.00
2022-09-11T05:47:04.682Z,100.00
2022-09-11T05:49:31.609Z,100.00
2022-09-11T05:51:59.818Z,100.00
2022-09-11T05:54:27.396Z,100.00
2022-09-11T05:56:54.568Z,100.00
2022-09-11T05:59:27.081Z,100.00
2022-09-11T06:01:54.266Z,100.00
2022-09-11T06:04:32.117Z,100.00
2022-09-11T06:06:59.665Z,100.00
2022-09-11T06:09:27.767Z,100.00
2022-09-11T06:11:54.555Z,100.00
2022-09-11T06:14:21.962Z,100.00
2022-09-11T06:16:50.592Z,100.00
2022-09-11T06:19:17.349Z,100.00
2022-09-11T06:21:45.184Z,100.00
2022-09-11T06:24:22.589Z,100.00
2022-09-11T06:26:49.868Z,100.00
2022-09-11T06:29:19.428Z,100.00
2022-09-11T06:31:51.232Z,100.00
2022-09-11T06:34:21.534Z,100.00
2022-09-11T06:36:51.854Z,100.00
2022-09-11T06:39:23.076Z,100.00
2022-09-11T06:41:50.790Z,100.00
2022-09-11T06:44:20.126Z,100.00
2022-09-11T06:46:47.784Z,100.00
2022-09-11T06:49:14.594Z,100.00
2022-09-11T06:51:59.671Z,100.00
2022-09-11T06:54:27.331Z,100.00
2022-09-11T06:56:55.448Z,100.00
2022-09-11T06:59:23.876Z,100.00
2022-09-11T07:01:51.665Z,100.00
2022-09-11T07:04:18.581Z,100.00
2022-09-11T07:06:48.176Z,100.00
2022-09-11T07:09:15.843Z,100.00
2022-09-11T07:11:48.376Z,100.00
2022-09-11T07:14:21.026Z,100.00
2022-09-11T07:16:50.929Z,100.00
2022-09-11T07:19:19.068Z,100.00
2022-09-11T07:21:45.817Z,100.00
2022-09-11T07:24:12.708Z,100.00
2022-09-11T07:26:41.956Z,100.00
2022-09-11T07:29:14.576Z,100.00
2022-09-11T07:31:42.736Z,100.00
2022-09-11T07:34:10.930Z,100.00
2022-09-11T07:36:37.618Z,100.00
2022-09-11T07:39:08.035Z,100.00
2022-09-11T07:41:39.413Z,100.00
2022-09-11T07:44:15.265Z,100.00
2022-09-11T07:46:42.030Z,100.00
2022-09-11T07:49:11.218Z,100.00
2022-09-11T07:51:41.012Z,100.00
2022-09-11T07:54:09.850Z,100.00
2022-09-11T07:56:38.400Z,100.00
2022-09-11T07:59:08.634Z,100.00
2022-09-11T08:01:37.647Z,100.00
2022-09-11T08:04:08.061Z,100.00
2022-09-11T08:06:37.169Z,100.00
2022-09-11T08:09:10.681Z,100.00
2022-09-11T08:11:45.857Z,100.00
2022-09-11T08:14:13.661Z,100.00
2022-09-11T08:16:41.906Z,100.00
2022-09-11T08:19:14.577Z,100.00
2022-09-11T08:21:42.218Z,100.00
2022-09-11T08:24:12.633Z,100.00
2022-09-11T08:26:40.535Z,100.00
2022-09-11T08:29:07.219Z,100.00
2022-09-11T08:31:35.253Z,100.00
2022-09-11T08:34:03.608Z,100.00
2022-09-11T08:36:30.477Z,100.00
2022-09-11T08:39:02.767Z,100.00
2022-09-11T08:41:49.825Z,100.00
2022-09-11T08:44:38.526Z,100.00
2022-09-11T08:47:24.400Z,100.00
2022-09-11T08:50:01.490Z,100.00
2022-09-11T08:52:29.839Z,100.00
2022-09-11T08:54:59.300Z,100.00
2022-09-11T08:57:48.648Z,100.00
2022-09-11T09:00:27.606Z,100.00
2022-09-11T09:03:30.190Z,100.00
2022-09-11T09:06:15.985Z,100.00
2022-09-11T09:08:56.508Z,100.00
2022-09-11T09:11:40.400Z,100.00
2022-09-11T09:14:44.531Z,100.00
2022-09-11T09:17:14.823Z,100.00
2022-09-11T09:20:07.057Z,100.00
2022-09-11T09:22:53.207Z,100.00
2022-09-11T09:25:23.141Z,100.00
2022-09-11T09:28:02.091Z,100.00
2022-09-11T09:30:40.659Z,100.00
2022-09-11T09:33:52.497Z,100.00
2022-09-11T09:36:31.658Z,100.00
2022-09-11T09:39:00.078Z,100.00
2022-09-11T09:41:46.028Z,100.00
2022-09-11T09:44:23.025Z,100.00
2022-09-11T09:46:52.879Z,100.00
2022-09-11T09:49:27.774Z,100.00
2022-09-11T09:52:03.558Z,100.00
2022-09-11T09:54:36.299Z,100.00
2022-09-11T09:57:13.715Z,100.00
2022-09-11T09:59:46.072Z,100.00
2022-09-11T10:02:13.538Z,100.00
2022-09-11T10:04:40.633Z,100.00
2022-09-11T10:07:07.291Z,95.05
2022-09-11T10:09:34.270Z,92.79
2022-09-11T10:12:07.272Z,93.33
2022-09-11T10:14:58.124Z,97.03
2022-09-11T10:17:29.319Z,87.25
2022-09-11T10:20:19.649Z,86.04
2022-09-11T10:23:26.652Z,86.50
2022-09-11T10:25:54.437Z,97.79
2022-09-11T10:28:33.320Z,100.00
2022-09-11T10:31:04.957Z,100.00
2022-09-11T10:33:36.201Z,100.00
2022-09-11T10:36:06.470Z,100.00
2022-09-11T10:38:46.869Z,100.00
2022-09-11T10:41:13.792Z,100.00
2022-09-11T10:43:53.193Z,100.00
2022-09-11T10:46:19.742Z,100.00
2022-09-11T10:48:55.373Z,100.00
2022-09-11T10:51:24.680Z,100.00
2022-09-11T10:54:38.302Z,100.00
2022-09-11T10:57:20.118Z,100.00
2022-09-11T11:00:08.523Z,100.00
2022-09-11T11:02:39.841Z,100.00
2022-09-11T11:05:18.101Z,100.00
2022-09-11T11:08:06.233Z,100.00
2022-09-11T11:11:04.015Z,100.00
2022-09-11T11:13:46.937Z,100.00
2022-09-11T11:16:16.282Z,100.00
2022-09-11T11:18:52.121Z,100.00
2022-09-11T11:21:18.700Z,100.00
2022-09-11T11:23:54.199Z,100.00
2022-09-11T11:26:27.575Z,100.00
2022-09-11T11:29:03.285Z,98.14
2022-09-11T11:31:55.626Z,100.00
2022-09-11T11:34:37.511Z,100.00
2022-09-11T11:37:17.868Z,96.66
2022-09-11T11:40:23.415Z,98.60
2022-09-11T11:43:01.083Z,100.00
2022-09-11T11:45:52.383Z,100.00
2022-09-11T11:48:26.157Z,100.00
2022-09-11T11:51:17.466Z,100.00
2022-09-11T11:54:06.644Z,96.39
2022-09-11T11:57:05.482Z,100.00
2022-09-11T11:59:45.733Z,100.00
2022-09-11T12:02:29.279Z,100.00
2022-09-11T12:05:02.143Z,100.00
2022-09-11T12:07:34.113Z,100.00
2022-09-11T12:10:02.957Z,100.00
2022-09-11T12:12:33.876Z,100.00
2022-09-11T12:15:09.985Z,100.00
2022-09-11T12:17:39.817Z,100.00
2022-09-11T12:20:12.316Z,100.00
2022-09-11T12:22:48.568Z,100.00
2022-09-11T12:25:21.411Z,100.00
2022-09-11T12:27:53.371Z,100.00
2022-09-11T12:30:25.318Z,100.00
2022-09-11T12:32:55.340Z,100.00
2022-09-11T12:35:31.443Z,100.00
2022-09-11T12:38:14.463Z,100.00
2022-09-11T12:40:46.780Z,100.00
2022-09-11T12:43:28.295Z,100.00
2022-09-11T12:45:56.710Z,100.00
2022-09-11T12:48:38.713Z,100.00
2022-09-11T12:51:15.267Z,100.00
2022-09-11T12:53:47.133Z,100.00
2022-09-11T12:56:21.833Z,100.00
2022-09-11T12:58:57.667Z,100.00
2022-09-11T13:01:30.492Z,100.00
2022-09-11T13:04:12.729Z,100.00
2022-09-11T13:06:51.850Z,100.00
2022-09-11T13:09:21.438Z,100.00
2022-09-11T13:11:50.929Z,100.00
2022-09-11T13:14:30.208Z,100.00
2022-09-11T13:16:58.743Z,100.00
2022-09-11T13:19:34.084Z,100.00
2022-09-11T13:22:00.698Z,98.31
2022-09-11T13:24:32.544Z,95.52
2022-09-11T13:26:59.736Z,89.51
2022-09-11T13:29:30.439Z,89.66
2022-09-11T13:32:00.549Z,83.56
2022-09-11T13:34:29.533Z,81.29
2022-09-11T13:36:57.711Z,75.21
2022-09-11T13:39:26.693Z,66.79
2022-09-11T13:42:02.641Z,71.07
2022-09-11T13:44:42.610Z,68.23
2022-09-11T13:47:19.138Z,67.01
2022-09-11T13:49:47.896Z,69.94
2022-09-11T13:52:15.708Z,69.97
2022-09-11T13:55:12.303Z,73.04
2022-09-11T13:58:21.304Z,69.82
2022-09-11T14:00:50.488Z,68.63
2022-09-11T14:03:31.813Z,69.24
2022-09-11T14:06:15.093Z,72.36
2022-09-11T14:08:48.904Z,73.42
2022-09-11T14:11:26.062Z,76.98
2022-09-11T14:14:01.004Z,79.73
2022-09-11T14:16:35.660Z,77.40
2022-09-11T14:19:14.944Z,75.74
2022-09-11T14:21:48.082Z,76.07
2022-09-11T14:24:33.006Z,78.77
2022-09-11T14:27:01.868Z,80.72
2022-09-11T14:29:33.498Z,79.39
2022-09-11T14:32:28.345Z,80.89
2022-09-11T14:34:55.462Z,79.34
2022-09-11T14:37:23.845Z,79.30
2022-09-11T14:39:58.036Z,78.20
2022-09-11T14:42:30.960Z,81.17
2022-09-11T14:44:59.294Z,80.94
2022-09-11T14:47:28.715Z,80.89
2022-09-11T14:49:57.549Z,81.50
2022-09-11T14:52:27.160Z,81.77
2022-09-11T14:54:55.150Z,81.87
2022-09-11T14:57:24.613Z,81.38
2022-09-11T14:59:52.586Z,80.22
2022-09-11T15:02:21.943Z,79.99
2022-09-11T15:04:50.073Z,80.81
2022-09-11T15:07:18.797Z,80.28
2022-09-11T15:09:46.490Z,79.76
2022-09-11T15:12:14.486Z,81.82
2022-09-11T15:14:56.621Z,79.74
2022-09-11T15:17:25.348Z,79.56
2022-09-11T15:19:53.425Z,80.20
2022-09-11T15:22:20.864Z,80.44
2022-09-11T15:24:48.789Z,79.60
2022-09-11T15:27:17.340Z,78.94
2022-09-11T15:29:45.139Z,80.40
2022-09-11T15:32:14.547Z,82.04
2022-09-11T15:34:45.275Z,84.92
2022-09-11T15:37:12.104Z,85.92
2022-09-11T15:39:39.070Z,88.02
2022-09-11T15:42:07.625Z,88.37
2022-09-11T15:44:35.909Z,87.13
2022-09-11T15:47:04.371Z,86.24
2022-09-11T15:49:31.822Z,83.53
2022-09-11T15:52:00.379Z,82.98
2022-09-11T15:54:27.845Z,81.84
2022-09-11T15:56:54.624Z,83.85
2022-09-11T15:59:21.293Z,85.76
2022-09-11T16:01:48.775Z,87.39
2022-09-11T16:04:20.267Z,88.27
2022-09-11T16:06:48.471Z,89.22
2022-09-11T16:09:20.442Z,88.69
2022-09-11T16:11:56.857Z,89.35
2022-09-11T16:14:27.175Z,91.66
2022-09-11T16:16:56.720Z,92.50
2022-09-11T16:19:47.604Z,91.90
2022-09-11T16:22:14.445Z,93.24
2022-09-11T16:24:42.489Z,91.89
2022-09-11T16:27:10.353Z,92.89
2022-09-11T16:30:15.589Z,91.86
2022-09-11T16:32:34.093Z,91.43
2022-09-11T16:35:01.009Z,90.33
2022-09-11T16:37:28.474Z,81.16
2022-09-11T16:39:55.615Z,73.46
2022-09-11T16:42:22.368Z,69.50
2022-09-11T16:44:50.133Z,67.67
2022-09-11T16:47:17.574Z,65.39
2022-09-11T16:50:06.017Z,63.57
2022-09-11T16:52:32.249Z,64.22
2022-09-11T16:54:59.492Z,64.18
2022-09-11T16:57:27.305Z,63.21
2022-09-11T16:59:54.294Z,61.94
2022-09-11T17:02:22.018Z,60.97
2022-09-11T17:04:48.713Z,61.75
2022-09-11T17:07:15.371Z,63.25
2022-09-11T17:09:48.395Z,63.24
2022-09-11T17:12:17.685Z,64.28
2022-09-11T17:14:44.434Z,66.66
2022-09-11T17:17:31.213Z,68.29
2022-09-11T17:19:59.363Z,69.04
2022-09-11T17:22:26.886Z,69.53
2022-09-11T17:24:54.075Z,74.20
2022-09-11T17:27:21.016Z,81.13
2022-09-11T17:30:21.648Z,88.09
2022-09-11T17:32:48.329Z,94.19
2022-09-11T17:35:15.203Z,99.83
2022-09-11T17:37:42.708Z,100.00
2022-09-11T17:40:10.002Z,100.00
2022-09-11T17:42:36.710Z,100.00
2022-09-11T17:45:03.812Z,100.00
2022-09-11T17:47:32.878Z,100.00
2022-09-11T17:50:03.185Z,100.00
2022-09-11T17:52:32.047Z,100.00
2022-09-11T17:54:58.697Z,100.00
2022-09-11T17:57:25.583Z,100.00
2022-09-11T17:59:53.035Z,100.00
2022-09-11T18:02:19.893Z,100.00
2022-09-11T18:04:49.741Z,100.00
2022-09-11T18:07:17.818Z,100.00
2022-09-11T18:09:45.454Z,100.00
2022-09-11T18:12:12.210Z,100.00
2022-09-11T18:14:39.872Z,100.00
2022-09-11T18:17:06.663Z,100.00
2022-09-11T18:19:33.304Z,100.00
2022-09-11T18:22:00.022Z,100.00
2022-09-11T18:24:29.802Z,100.00
2022-09-11T18:27:00.678Z,100.00
2022-09-11T18:29:35.289Z,100.00
2022-09-11T18:32:03.432Z,100.00
2022-09-11T18:34:31.156Z,100.00
2022-09-11T18:36:59.902Z,100.00
2022-09-11T18:39:27.409Z,100.00
2022-09-11T18:41:54.287Z,100.00
2022-09-11T18:44:25.203Z,100.00
2022-09-11T18:46:54.007Z,100.00
2022-09-11T18:49:21.403Z,100.00
2022-09-11T18:52:22.726Z,100.00
2022-09-11T18:54:52.685Z,100.00
2022-09-11T18:57:19.363Z,100.00
2022-09-11T18:59:46.274Z,100.00
2022-09-11T19:02:13.003Z,100.00
2022-09-11T19:04:39.986Z,100.00
2022-09-11T19:07:06.863Z,100.00
2022-09-11T19:09:33.583Z,100.00
2022-09-11T19:12:00.921Z,100.00
2022-09-11T19:14:27.841Z,100.00
2022-09-11T19:16:54.620Z,100.00
2022-09-11T19:19:21.445Z,100.00
2022-09-11T19:21:48.611Z,100.00
2022-09-11T19:24:15.308Z,100.00
2022-09-11T19:26:43.559Z,100.00
2022-09-11T19:29:13.275Z,100.00
2022-09-11T19:31:40.414Z,100.00
2022-09-11T19:34:11.718Z,100.00
2022-09-11T19:36:39.464Z,100.00
2022-09-11T19:39:06.358Z,100.00
2022-09-11T19:41:37.401Z,100.00
2022-09-11T19:44:06.961Z,100.00
2022-09-11T19:46:34.793Z,100.00
2022-09-11T19:49:03.571Z,100.00
2022-09-11T19:51:34.304Z,100.00
2022-09-11T19:54:04.608Z,100.00
2022-09-11T19:56:35.153Z,100.00
2022-09-11T19:59:02.354Z,100.00
2022-09-11T20:01:30.789Z,100.00
2022-09-11T20:04:00.398Z,100.00
2022-09-11T20:06:32.282Z,100.00
2022-09-11T20:09:20.221Z,100.00
2022-09-11T20:11:46.733Z,100.00
2022-09-11T20:14:13.524Z,100.00
2022-09-11T20:16:40.276Z,100.00
2022-09-11T20:19:06.997Z,100.00
2022-09-11T20:21:36.068Z,100.00
2022-09-11T20:24:05.140Z,100.00
2022-09-11T20:26:32.578Z,100.00
2022-09-11T20:29:07.489Z,100.00
2022-09-11T20:31:44.825Z,100.00
2022-09-11T20:34:17.526Z,100.00
2022-09-11T20:36:44.414Z,100.00
2022-09-11T20:39:13.655Z,100.00
2022-09-11T20:41:41.123Z,100.00
2022-09-11T20:44:07.928Z,100.00
2022-09-11T20:46:34.634Z,100.00
2022-09-11T20:49:02.959Z,100.00
2022-09-11T20:51:30.270Z,100.00
2022-09-11T20:53:57.115Z,100.00
2022-09-11T20:56:24.204Z,100.00
2022-09-11T20:58:51.874Z,100.00
2022-09-11T21:01:21.703Z,100.00
2022-09-11T21:03:51.712Z,100.00
2022-09-11T21:06:24.758Z,100.00
2022-09-11T21:08:57.824Z,100.00
2022-09-11T21:11:26.592Z,100.00
2022-09-11T21:13:53.654Z,100.00
2022-09-11T21:16:21.027Z,100.00
2022-09-11T21:18:51.118Z,100.00
2022-09-11T21:21:18.792Z,100.00
2022-09-11T21:23:48.841Z,100.00
2022-09-11T21:26:17.080Z,100.00
2022-09-11T21:28:44.301Z,100.00
2022-09-11T21:31:11.630Z,100.00
2022-09-11T21:33:39.203Z,100.00
2022-09-11T21:36:06.763Z,100.00
2022-09-11T21:38:33.487Z,100.00
2022-09-11T21:41:02.477Z,100.00
2022-09-11T21:43:29.682Z,100.00
2022-09-11T21:45:56.894Z,100.00
2022-09-11T21:48:23.646Z,100.00
2022-09-11T21:50:50.883Z,100.00
2022-09-11T21:53:17.673Z,100.00
2022-09-11T21:55:46.646Z,100.00
2022-09-11T21:58:16.460Z,100.00
2022-09-11T22:00:43.641Z,100.00
2022-09-11T22:03:14.229Z,100.00
2022-09-11T22:05:45.683Z,100.00
2022-09-11T22:08:14.880Z,100.00
2022-09-11T22:10:43.676Z,100.00
2022-09-11T22:13:10.644Z,100.00
2022-09-11T22:15:45.191Z,100.00
2022-09-11T22:18:12.192Z,100.00
2022-09-11T22:20:39.844Z,100.00
2022-09-11T22:23:07.154Z,100.00
2022-09-11T22:25:36.659Z,100.00
2022-09-11T22:28:04.681Z,100.00
2022-09-11T22:30:31.826Z,100.00
2022-09-11T22:32:59.739Z,100.00
2022-09-11T22:35:27.427Z,100.00
2022-09-11T22:37:54.135Z,100.00
2022-09-11T22:40:20.842Z,100.00
2022-09-11T22:42:47.567Z,100.00
2022-09-11T22:45:14.305Z,100.00
2022-09-11T22:47:41.209Z,100.00
2022-09-11T22:50:08.522Z,100.00
2022-09-11T22:52:37.231Z,100.00
2022-09-11T22:55:05.976Z,100.00
2022-09-11T22:57:35.139Z,100.00
2022-09-11T23:00:04.725Z,100.00
2022-09-11T23:02:31.381Z,100.00
2022-09-11T23:05:16.651Z,100.00
2022-09-11T23:07:43.577Z,100.00
2022-09-11T23:10:11.052Z,100.00
2022-09-11T23:12:37.689Z,100.00
2022-09-11T23:15:05.758Z,100.00
2022-09-11T23:17:33.441Z,100.00
2022-09-11T23:20:00.166Z,100.00
2022-09-11T23:22:27.421Z,100.00
2022-09-11T23:24:54.249Z,100.00
2022-09-11T23:27:20.917Z,100.00
2022-09-11T23:29:47.536Z,100.00
2022-09-11T23:32:14.198Z,100.00
2022-09-11T23:34:40.821Z,100.00
2022-09-11T23:37:07.447Z,100.00
2022-09-11T23:39:34.077Z,100.00
2022-09-11T23:42:00.697Z,100.00
2022-09-11T23:44:27.311Z,100.00
2022-09-11T23:46:54.110Z,100.00
2022-09-11T23:49:21.034Z,100.00
2022-09-11T23:51:49.016Z,100.00
2022-09-11T23:54:16.268Z,100.00
2022-09-11T23:56:43.128Z,100.00
2022-09-11T23:59:09.760Z,100.00
